KMTPKBTV

Guest
Details From KMTP - Montauk
To KBTV - Burlington Intl
Flight Number -
Tags Generated
Created
Modified
Stats Distance 211 nm / 390 km
Max Altitude 0 ft / 0 m
Waypoints 2
Social Downloads 0
Likes 0
Share VATSIM

Download

Looking for another format? Having issues loading an existing format? Contact us
Advertisement - Login to hide

Notes

Generated

Route

KMTP KBTV

ID Type Via Altitude Latitude Longitude Leg Dist Tot Dist Heading (true) Name
O KMTP APT - 0 ft / 0 m 41.07320˚ -71.92539˚ - 0 nm - -
O KBTV APT - 0 ft / 0 m 44.46384˚ -73.15101˚ 210 nm 210 nm 346° / 345° -

Altitude Profile

Advertisement - Login to hide

Weather


0- 5 10 15 20 25 30 35+ Temperature / ° C

Clouds and Precipitation
Forecast for 2017-12-11 06:00 UTC. Updated an hour ago

Ground ~20,000 ft ~40,000 ft Winds

KMTP

Details ICAO KMTP
Name MONTAUK
Region United States
Timezone America/New_York (UTC-5.0)
Stats Elevation 6 ft / 2 m (AMSL)
Location 41.076459° -71.920770°
Runways 1
Magnetic Variation 13.966° W

METAR

KMTP 110554Z AUTO 25013G19KT 04/M06 A3000 RMK AO1 SLP158 T00391056 10044 20033 58002

Decode

TAF

Not found

Departure Runways

ID Width Length Bearing (true) Bearing (mag) Surface Threshold Offset Overrun Length
06 75 ft / 23 m 3,479 ft / 1,060 m 46.93° 60.90° Asphalt 538 ft / 164 m 0 ft / 0 m
24 75 ft / 23 m 3,479 ft / 1,060 m 226.93° 240.90° Asphalt 456 ft / 139 m 0 ft / 0 m

KBTV

Details ICAO KBTV (BTV)
Name BURLINGTON INTL
Region United States
Timezone America/New_York (UTC-5.0)
Stats Elevation 334 ft / 102 m (AMSL)
Location 44.471252° -73.153113°
Runways 2
Magnetic Variation 14.309° W

METAR

KBTV 110554Z 20007KT 10SM OVC047 M01/M05 A2983 RMK AO2 SLP104 60000 T10061050 10000 21011 50004

Decode

TAF

KBTV 110543Z 1106/1206 20007KT P6SM VCSH OVC040 TEMPO 1106/1109 3SM -SHSN OVC025 FM111000 26008KT P6SM VCSH OVC035 FM111200 32008KT P6SM VCSH BKN015 TEMPO 1112/1114 3SM -SHSN FM111500 32008KT P6SM BKN050 FM120100 14005KT P6SM BKN110

Decode

Destination Runways

ID Width Length Bearing (true) Bearing (mag) Surface Threshold Offset Overrun Length
01 75 ft / 23 m 4,115 ft / 1,254 m 351.45° 5.76° Asphalt 226 ft / 69 m 0 ft / 0 m
15 150 ft / 46 m 8,311 ft / 2,533 m 130.91° 145.22° Asphalt 0 ft / 0 m 1,004 ft / 306 m
19 75 ft / 23 m 4,115 ft / 1,254 m 171.45° 185.76° Asphalt 505 ft / 154 m 0 ft / 0 m
33 150 ft / 46 m 8,311 ft / 2,533 m 310.93° 325.24° Asphalt 502 ft / 153 m 522 ft / 159 m

Approach Navaids

Runway Type Ident Frequency Range Bearing (true) Bearing (mag) Slope Elevation
15 Localiser IBTV 110.30 MHz 18 nm / 33 km 130.92° 145.23° - 331 ft / 101 m (AMSL)
15 Glidescope IBTV 110.30 MHz 10 nm / 19 km 130.92° 145.23° 3.00° 308 ft / 94 m (AMSL)
15 DME IBTV 110.30 MHz 18 nm / 33 km - - - 339 ft / 103 m (AMSL)
33 Localiser IVOE 110.30 MHz 18 nm / 33 km 310.90° 325.21° - 294 ft / 90 m (AMSL)
33 Glidescope IVOE 110.30 MHz 10 nm / 19 km 310.92° 325.23° 3.20° 334 ft / 102 m (AMSL)
33 DME IVOE 110.30 MHz 18 nm / 33 km - - - 342 ft / 104 m (AMSL)